createdAt,value
2019-03-12T00:02:21.600Z,43.90
2019-03-12T00:04:50.141Z,43.27
2019-03-12T00:07:18.613Z,36.43
2019-03-12T00:09:47.177Z,42.60
2019-03-12T00:12:15.648Z,36.57
2019-03-12T00:14:44.190Z,36.57
2019-03-12T00:17:12.694Z,40.13
2019-03-12T00:19:42.698Z,42.03
2019-03-12T00:22:11.245Z,48.47
2019-03-12T00:24:39.873Z,57.03
2019-03-12T00:27:08.408Z,55.03
2019-03-12T00:29:36.957Z,59.90
2019-03-12T00:32:05.457Z,66.63
2019-03-12T00:34:34.006Z,70.13
2019-03-12T00:37:02.480Z,60.60
2019-03-12T00:39:31.061Z,65.20
2019-03-12T00:41:59.597Z,58.77
2019-03-12T00:44:28.201Z,64.23
2019-03-12T00:46:56.705Z,67.50
2019-03-12T00:49:25.254Z,60.23
2019-03-12T00:51:53.717Z,59.40
2019-03-12T00:54:22.295Z,61.23
2019-03-12T00:56:50.832Z,60.60
2019-03-12T00:59:19.307Z,59.83
2019-03-12T01:01:47.929Z,57.83
2019-03-12T01:04:16.473Z,51.87
2019-03-12T01:06:45.126Z,44.00
2019-03-12T01:09:13.765Z,48.60
2019-03-12T01:11:42.228Z,50.80
2019-03-12T01:14:10.733Z,40.47
2019-03-12T01:16:39.269Z,45.60
2019-03-12T01:19:07.816Z,39.93
2019-03-12T01:21:36.389Z,41.10
2019-03-12T01:24:04.996Z,36.43
2019-03-12T01:26:33.466Z,34.30
2019-03-12T01:29:02.046Z,31.97
2019-03-12T01:31:30.591Z,31.90
2019-03-12T01:34:00.052Z,33.07
2019-03-12T01:36:28.633Z,35.97
2019-03-12T01:38:57.248Z,32.87
2019-03-12T01:41:25.717Z,33.63
2019-03-12T01:43:54.293Z,31.73
2019-03-12T01:46:22.843Z,29.10
2019-03-12T01:48:51.383Z,27.37
2019-03-12T01:51:19.930Z,38.03
2019-03-12T01:53:48.474Z,30.73
2019-03-12T01:56:16.988Z,33.77
2019-03-12T01:58:45.536Z,30.37
2019-03-12T02:01:14.073Z,30.87
2019-03-12T02:03:42.653Z,28.00
2019-03-12T02:06:11.214Z,27.60
2019-03-12T02:08:39.898Z,25.03
2019-03-12T02:11:08.509Z,31.13
2019-03-12T02:13:36.979Z,28.77
2019-03-12T02:16:05.753Z,35.13
2019-03-12T02:18:34.225Z,30.37
2019-03-12T02:21:02.765Z,30.73
2019-03-12T02:23:31.345Z,28.93
2019-03-12T02:25:59.813Z,30.47
2019-03-12T02:28:28.298Z,32.10
2019-03-12T02:30:56.932Z,27.60
2019-03-12T02:33:25.560Z,27.63
2019-03-12T02:35:54.182Z,28.53
2019-03-12T02:38:22.730Z,31.13
2019-03-12T02:40:51.344Z,30.73
2019-03-12T02:43:19.957Z,32.87
2019-03-12T02:45:48.432Z,25.97
2019-03-12T02:48:16.970Z,30.43
2019-03-12T02:50:45.534Z,30.23
2019-03-12T02:53:14.082Z,29.93
2019-03-12T02:55:42.625Z,34.90
2019-03-12T02:58:11.283Z,28.90
2019-03-12T03:00:39.834Z,30.50
2019-03-12T03:03:08.387Z,26.70
2019-03-12T03:05:38.597Z,31.33
2019-03-12T03:08:08.807Z,34.33
2019-03-12T03:10:37.348Z,31.03
2019-03-12T03:13:06.062Z,33.97
2019-03-12T03:15:37.184Z,36.13
2019-03-12T03:18:05.862Z,30.77
2019-03-12T03:20:34.441Z,40.33
2019-03-12T03:23:03.085Z,34.13
2019-03-12T03:25:31.684Z,36.73
2019-03-12T03:28:00.228Z,33.23
2019-03-12T03:30:28.841Z,36.37
2019-03-12T03:32:57.505Z,35.23
2019-03-12T03:35:26.143Z,39.63
2019-03-12T03:37:54.673Z,42.50
2019-03-12T03:40:23.365Z,45.73
2019-03-12T03:42:52.029Z,43.87
2019-03-12T03:45:20.818Z,43.50
2019-03-12T03:47:49.426Z,44.33
2019-03-12T03:50:18.633Z,45.53
2019-03-12T03:52:47.173Z,42.63
2019-03-12T03:55:20.066Z,45.03
2019-03-12T03:57:51.087Z,44.47
2019-03-12T04:00:26.020Z,42.50
2019-03-12T04:02:54.678Z,35.80
2019-03-12T04:05:23.489Z,31.93
2019-03-12T04:07:52.090Z,35.83
2019-03-12T04:10:20.644Z,37.03
2019-03-12T04:12:49.217Z,41.97
2019-03-12T04:15:18.706Z,45.73
2019-03-12T04:17:47.493Z,43.97
2019-03-12T04:20:17.817Z,45.37
2019-03-12T04:22:46.438Z,47.23
2019-03-12T04:25:15.109Z,48.53
2019-03-12T04:27:43.861Z,48.20
2019-03-12T04:30:15.463Z,41.80
2019-03-12T04:32:44.083Z,42.13
2019-03-12T04:35:33.209Z,40.90
2019-03-12T04:38:01.754Z,47.70
2019-03-12T04:40:30.366Z,43.63
2019-03-12T04:42:59.087Z,45.03
2019-03-12T04:45:27.639Z,41.37
2019-03-12T04:47:56.175Z,48.10
2019-03-12T04:50:24.789Z,44.07
2019-03-12T04:52:53.256Z,40.33
2019-03-12T04:55:21.842Z,37.57
2019-03-12T04:57:50.448Z,37.03
2019-03-12T05:00:20.661Z,37.93
2019-03-12T05:02:49.236Z,38.53
2019-03-12T05:05:17.856Z,38.87
2019-03-12T05:07:47.053Z,36.57
2019-03-12T05:10:16.578Z,47.93
2019-03-12T05:12:45.306Z,47.10
2019-03-12T05:15:17.852Z,37.07
2019-03-12T05:17:46.489Z,38.63
2019-03-12T05:20:15.775Z,37.70
2019-03-12T05:22:44.356Z,41.77
2019-03-12T05:25:16.234Z,44.23
2019-03-12T05:27:44.848Z,46.10
2019-03-12T05:30:15.993Z,41.00
2019-03-12T05:32:44.528Z,40.50
2019-03-12T05:35:13.310Z,44.00
2019-03-12T05:37:42.030Z,39.33
2019-03-12T05:40:12.211Z,41.10
2019-03-12T05:42:40.824Z,37.03
2019-03-12T05:45:11.967Z,47.37
2019-03-12T05:47:40.611Z,48.23
2019-03-12T05:50:11.925Z,53.67
2019-03-12T05:52:40.589Z,39.60
2019-03-12T05:55:10.748Z,33.07
2019-03-12T05:57:39.217Z,34.70
2019-03-12T06:00:20.553Z,33.67
2019-03-12T06:02:49.257Z,30.70
2019-03-12T06:05:17.934Z,33.20
2019-03-12T06:07:46.665Z,35.53
2019-03-12T06:10:15.969Z,33.23
2019-03-12T06:12:44.584Z,31.43
2019-03-12T06:15:15.268Z,30.40
2019-03-12T06:17:43.879Z,34.87
2019-03-12T06:20:13.669Z,32.47
2019-03-12T06:22:42.309Z,30.37
2019-03-12T06:25:11.103Z,29.17
2019-03-12T06:27:39.788Z,30.83
2019-03-12T06:30:11.431Z,32.57
2019-03-12T06:32:50.722Z,34.90
2019-03-12T06:35:23.606Z,29.43
2019-03-12T06:38:05.941Z,33.30
2019-03-12T06:40:38.780Z,29.27
2019-03-12T06:43:25.257Z,31.27
2019-03-12T06:46:10.701Z,35.13
2019-03-12T06:48:43.645Z,26.17
2019-03-12T06:51:30.145Z,30.57
2019-03-12T06:54:03.170Z,31.40
2019-03-12T06:56:36.325Z,32.97
2019-03-12T06:59:06.578Z,32.70
2019-03-12T07:01:42.830Z,31.10
2019-03-12T07:04:13.025Z,27.73
2019-03-12T07:07:01.592Z,24.33
2019-03-12T07:09:43.630Z,27.30
2019-03-12T07:12:22.721Z,26.23
2019-03-12T07:14:52.950Z,31.03
2019-03-12T07:17:26.110Z,28.93
2019-03-12T07:20:13.475Z,29.93
2019-03-12T07:23:00.026Z,29.27
2019-03-12T07:25:45.365Z,35.70
2019-03-12T07:28:27.171Z,30.60
2019-03-12T07:30:57.393Z,30.77
2019-03-12T07:33:27.583Z,34.70
2019-03-12T07:36:02.237Z,31.07
2019-03-12T07:38:32.421Z,34.93
2019-03-12T07:41:02.598Z,33.37
2019-03-12T07:43:38.806Z,26.80
2019-03-12T07:46:11.727Z,24.50
2019-03-12T07:48:44.803Z,24.43
2019-03-12T07:51:32.825Z,26.33
2019-03-12T07:54:02.976Z,24.53
2019-03-12T07:56:38.985Z,19.90
2019-03-12T07:59:14.957Z,26.90
2019-03-12T08:01:47.936Z,26.73
2019-03-12T08:04:34.120Z,20.93
2019-03-12T08:07:16.182Z,25.93
2019-03-12T08:09:55.285Z,22.80
2019-03-12T08:12:25.476Z,25.13
2019-03-12T08:15:04.493Z,25.97
2019-03-12T08:17:37.017Z,32.50
2019-03-12T08:20:15.926Z,30.20
2019-03-12T08:22:51.888Z,29.83
2019-03-12T08:25:38.298Z,33.17
2019-03-12T08:28:08.545Z,36.60
2019-03-12T08:30:38.866Z,30.43
2019-03-12T08:33:14.855Z,33.00
2019-03-12T08:35:45.037Z,33.63
2019-03-12T08:38:21.068Z,36.60
2019-03-12T08:41:09.298Z,35.13
2019-03-12T08:43:48.481Z,38.70
2019-03-12T08:46:34.720Z,33.40
2019-03-12T08:49:07.676Z,28.83
2019-03-12T08:51:37.844Z,31.67
2019-03-12T08:54:13.677Z,30.63
2019-03-12T08:57:00.156Z,35.40
2019-03-12T08:59:46.217Z,28.03
2019-03-12T09:02:19.302Z,26.73
2019-03-12T09:04:49.491Z,29.93
2019-03-12T09:07:19.694Z,25.73
2019-03-12T09:10:08.409Z,27.87
2019-03-12T09:12:42.818Z,24.97
2019-03-12T09:15:29.617Z,23.93
2019-03-12T09:18:15.049Z,24.43
2019-03-12T09:20:45.189Z,26.57
2019-03-12T09:23:15.509Z,27.67
2019-03-12T09:25:48.761Z,28.43
2019-03-12T09:28:18.898Z,26.77
2019-03-12T09:30:54.966Z,25.93
2019-03-12T09:33:28.169Z,26.30
2019-03-12T09:36:00.705Z,24.77
2019-03-12T09:38:36.784Z,25.30
2019-03-12T09:41:09.812Z,27.33
2019-03-12T09:43:55.130Z,26.57
2019-03-12T09:46:27.245Z,24.93
2019-03-12T09:49:15.161Z,24.27
2019-03-12T09:51:54.074Z,26.03
2019-03-12T09:54:24.288Z,23.80
2019-03-12T09:57:00.405Z,27.50
2019-03-12T09:59:48.494Z,22.17
2019-03-12T10:02:34.714Z,25.00
2019-03-12T10:05:17.149Z,26.50
2019-03-12T10:07:50.089Z,22.13
2019-03-12T10:10:23.799Z,23.30
2019-03-12T10:12:59.869Z,20.73
2019-03-12T10:15:31.708Z,24.17
2019-03-12T10:18:04.946Z,25.57
2019-03-12T10:20:35.066Z,21.10
2019-03-12T10:23:21.726Z,23.23
2019-03-12T10:26:09.424Z,26.73
2019-03-12T10:28:57.561Z,23.10
2019-03-12T10:31:30.595Z,22.43
2019-03-12T10:34:28.846Z,25.23
2019-03-12T10:37:11.831Z,19.53
2019-03-12T10:39:47.990Z,19.83
2019-03-12T10:42:23.949Z,22.63
2019-03-12T10:45:09.449Z,20.73
2019-03-12T10:47:39.794Z,21.07
2019-03-12T10:50:09.558Z,22.83
2019-03-12T10:52:38.133Z,21.17
2019-03-12T10:55:13.156Z,18.30
2019-03-12T10:57:38.066Z,19.80
2019-03-12T11:00:09.701Z,21.07
2019-03-12T11:02:40.658Z,26.63
2019-03-12T11:05:08.573Z,19.90
2019-03-12T11:07:37.220Z,19.13
2019-03-12T11:10:08.861Z,22.83
2019-03-12T11:12:37.469Z,17.77
2019-03-12T11:15:08.782Z,15.53
2019-03-12T11:17:48.992Z,20.63
2019-03-12T11:20:16.473Z,16.80
2019-03-12T11:22:45.018Z,18.47
2019-03-12T11:25:25.869Z,15.90
2019-03-12T11:27:44.037Z,18.90
2019-03-12T11:30:22.178Z,17.87
2019-03-12T11:32:50.826Z,21.90
2019-03-12T11:35:19.433Z,16.73
2019-03-12T11:37:48.233Z,16.47
2019-03-12T11:40:19.443Z,14.97
2019-03-12T11:42:48.130Z,20.47
2019-03-12T11:45:19.492Z,18.00
2019-03-12T11:47:47.187Z,17.00
2019-03-12T11:50:23.533Z,16.40
2019-03-12T11:52:56.836Z,16.13
2019-03-12T11:55:22.492Z,17.37
2019-03-12T11:57:51.153Z,14.30
2019-03-12T12:00:25.921Z,11.80
2019-03-12T12:02:59.819Z,16.50
2019-03-12T12:05:24.973Z,13.53
2019-03-12T12:07:53.735Z,15.53
2019-03-12T12:10:22.497Z,11.03
2019-03-12T12:12:51.112Z,12.63
2019-03-12T12:15:19.814Z,11.03
2019-03-12T12:17:49.569Z,8.90
2019-03-12T12:20:28.738Z,11.50
2019-03-12T12:22:48.627Z,11.67
2019-03-12T12:25:18.344Z,11.40
2019-03-12T12:27:46.966Z,11.97
2019-03-12T12:30:18.602Z,10.97
2019-03-12T12:32:47.282Z,11.80
2019-03-12T12:35:15.894Z,12.20
2019-03-12T12:37:45.552Z,11.00
2019-03-12T12:40:18.974Z,11.27
2019-03-12T12:42:47.591Z,12.03
2019-03-12T12:45:18.757Z,13.17
2019-03-12T12:47:47.365Z,15.63
2019-03-12T12:50:16.164Z,10.50
2019-03-12T12:52:44.785Z,10.20
2019-03-12T12:55:14.461Z,7.80
2019-03-12T12:57:43.101Z,12.43
2019-03-12T13:00:17.628Z,10.97
2019-03-12T13:02:46.161Z,10.30
2019-03-12T13:05:15.078Z,11.57
2019-03-12T13:07:43.704Z,15.10
2019-03-12T13:10:15.270Z,8.33
2019-03-12T13:12:46.258Z,26.03
2019-03-12T13:15:19.848Z,13.23
2019-03-12T13:17:48.433Z,11.77
2019-03-12T13:20:17.210Z,10.27
2019-03-12T13:22:45.821Z,11.87
2019-03-12T13:25:15.754Z,10.40
2019-03-12T13:27:44.349Z,8.13
2019-03-12T13:30:15.425Z,10.33
2019-03-12T13:32:44.174Z,10.60
2019-03-12T13:35:14.721Z,10.60
2019-03-12T13:37:43.413Z,12.87
2019-03-12T13:40:18.861Z,14.67
2019-03-12T13:42:47.472Z,12.00
2019-03-12T13:45:18.245Z,12.33
2019-03-12T13:47:47.063Z,12.13
2019-03-12T13:50:15.997Z,11.83
2019-03-12T13:52:44.608Z,14.83
2019-03-12T13:55:17.000Z,11.23
2019-03-12T13:57:46.029Z,9.93
2019-03-12T14:00:23.650Z,8.13
2019-03-12T14:02:52.413Z,8.23
2019-03-12T14:05:21.194Z,10.20
2019-03-12T14:07:49.824Z,9.17
2019-03-12T14:10:25.308Z,8.43
2019-03-12T14:12:54.518Z,10.90
2019-03-12T14:15:25.991Z,8.07
2019-03-12T14:17:54.518Z,9.60
2019-03-12T14:20:51.017Z,7.60
2019-03-12T14:23:30.999Z,10.20
2019-03-12T14:25:59.706Z,14.20
2019-03-12T14:28:28.313Z,15.97
2019-03-12T14:30:56.913Z,15.77
2019-03-12T14:33:25.488Z,35.83
2019-03-12T14:35:54.169Z,12.53
2019-03-12T14:38:22.846Z,12.83
2019-03-12T14:40:51.385Z,13.83
2019-03-12T14:43:20.021Z,21.30
2019-03-12T14:45:52.637Z,13.20
2019-03-12T14:48:44.423Z,21.70
2019-03-12T14:51:34.129Z,17.23
2019-03-12T14:54:12.924Z,17.03
2019-03-12T14:56:41.793Z,16.77
2019-03-12T14:59:10.580Z,32.60
2019-03-12T15:01:39.297Z,73.13
2019-03-12T15:04:07.907Z,35.27
2019-03-12T15:06:36.529Z,21.83
2019-03-12T15:09:11.037Z,26.27
2019-03-12T15:11:39.651Z,24.37
2019-03-12T15:14:08.300Z,19.87
2019-03-12T15:16:36.872Z,20.03
2019-03-12T15:19:05.545Z,41.97
2019-03-12T15:21:34.027Z,21.40
2019-03-12T15:24:02.669Z,26.17
2019-03-12T15:26:31.302Z,22.37
2019-03-12T15:28:59.909Z,24.27
2019-03-12T15:31:28.498Z,31.27
2019-03-12T15:33:57.109Z,24.53
2019-03-12T15:36:25.724Z,50.17
2019-03-12T15:38:54.222Z,45.63
2019-03-12T15:41:22.913Z,44.80
2019-03-12T15:43:51.383Z,51.63
2019-03-12T15:46:19.934Z,52.97
2019-03-12T15:48:48.398Z,72.60
2019-03-12T15:51:16.985Z,70.80
2019-03-12T15:53:45.537Z,56.50
2019-03-12T15:56:14.119Z,57.10
2019-03-12T15:58:42.732Z,47.47
2019-03-12T16:01:11.375Z,31.03
2019-03-12T16:03:41.843Z,25.83
2019-03-12T16:06:10.323Z,32.07
2019-03-12T16:08:38.965Z,36.20
2019-03-12T16:11:07.506Z,37.53
2019-03-12T16:13:36.229Z,40.03
2019-03-12T16:16:05.176Z,34.50
2019-03-12T16:18:33.713Z,45.33
2019-03-12T16:21:02.429Z,33.57
2019-03-12T16:23:31.047Z,27.57
2019-03-12T16:25:59.674Z,19.77
2019-03-12T16:28:28.309Z,19.33
2019-03-12T16:30:56.925Z,20.40
2019-03-12T16:33:25.485Z,25.10
2019-03-12T16:35:54.061Z,27.90
2019-03-12T16:38:22.605Z,33.30
2019-03-12T16:40:54.285Z,37.80
2019-03-12T16:43:22.877Z,40.80
2019-03-12T16:45:51.422Z,40.57
2019-03-12T16:48:19.969Z,45.33
2019-03-12T16:50:48.547Z,52.50
2019-03-12T16:53:17.230Z,44.60
2019-03-12T16:55:45.774Z,61.30
2019-03-12T16:58:14.365Z,79.10
2019-03-12T17:00:42.956Z,77.87
2019-03-12T17:03:11.494Z,88.07
2019-03-12T17:05:39.997Z,84.43
2019-03-12T17:08:08.684Z,70.43
2019-03-12T17:10:37.871Z,55.23
2019-03-12T17:13:06.589Z,54.53
2019-03-12T17:15:35.157Z,53.90
2019-03-12T17:18:04.813Z,65.17
2019-03-12T17:23:15.265Z,51.87
2019-03-12T17:25:43.945Z,49.57
2019-03-12T17:28:12.429Z,47.87
2019-03-12T17:30:40.997Z,51.50
2019-03-12T17:33:09.644Z,53.77
2019-03-12T17:35:40.221Z,48.87
2019-03-12T17:38:08.853Z,54.63
2019-03-12T17:40:37.489Z,48.23
2019-03-12T17:43:06.147Z,53.23
2019-03-12T17:45:34.726Z,52.13
2019-03-12T17:48:03.336Z,81.13
2019-03-12T17:50:31.949Z,83.63
2019-03-12T17:53:00.524Z,49.53
2019-03-12T17:55:29.207Z,62.77
2019-03-12T17:57:57.753Z,93.50
2019-03-12T18:00:28.715Z,114.93
2019-03-12T18:02:57.515Z,117.03
2019-03-12T18:05:26.199Z,128.67
2019-03-12T18:07:54.787Z,142.10
2019-03-12T18:10:23.338Z,124.27
2019-03-12T18:12:51.960Z,115.07
2019-03-12T18:15:21.278Z,145.43
2019-03-12T18:17:49.968Z,115.33
2019-03-12T18:20:22.479Z,128.37
2019-03-12T18:22:51.121Z,128.83
2019-03-12T18:25:28.638Z,176.67
2019-03-12T18:27:57.282Z,109.63
2019-03-12T18:30:25.897Z,127.50
2019-03-12T18:32:54.502Z,94.23
2019-03-12T18:35:23.157Z,107.17
2019-03-12T18:37:51.775Z,74.23
2019-03-12T18:40:25.359Z,55.97
2019-03-12T18:42:54.078Z,48.40
2019-03-12T18:45:25.029Z,49.67
2019-03-12T18:47:53.574Z,51.07
2019-03-12T18:50:22.227Z,48.23
2019-03-12T18:52:50.848Z,52.83
2019-03-12T18:55:33.702Z,38.43
2019-03-12T18:58:04.248Z,35.67
2019-03-12T19:00:33.206Z,34.93
2019-03-12T19:03:01.921Z,37.60
2019-03-12T19:05:30.605Z,34.67
2019-03-12T19:07:59.147Z,42.50
2019-03-12T19:10:27.734Z,46.87
2019-03-12T19:12:57.814Z,43.57
2019-03-12T19:15:26.503Z,47.00
2019-03-12T19:17:55.248Z,51.37
2019-03-12T19:20:23.930Z,47.53
2019-03-12T19:22:52.474Z,54.40
2019-03-12T19:25:26.945Z,52.03
2019-03-12T19:28:00.114Z,53.57
2019-03-12T19:30:25.751Z,49.27
2019-03-12T19:33:01.993Z,53.30
2019-03-12T19:35:31.632Z,44.73
2019-03-12T19:38:01.189Z,47.07
2019-03-12T19:40:41.029Z,45.83
2019-03-12T19:43:09.819Z,47.67
2019-03-12T19:45:38.504Z,55.30
2019-03-12T19:48:07.237Z,60.37
2019-03-12T19:50:36.022Z,52.50
2019-03-12T19:53:04.906Z,68.60
2019-03-12T19:55:38.852Z,89.83
2019-03-12T19:58:07.537Z,107.53
2019-03-12T20:00:36.146Z,97.03
2019-03-12T20:03:11.750Z,68.90
2019-03-12T20:05:35.616Z,56.20
2019-03-12T20:08:10.593Z,63.83
2019-03-12T20:10:44.863Z,53.57
2019-03-12T20:13:22.371Z,71.50
2019-03-12T20:16:16.117Z,57.20
2019-03-12T20:19:13.424Z,41.53
2019-03-12T20:21:59.280Z,43.87
2019-03-12T20:24:52.046Z,46.97
2019-03-12T20:27:45.308Z,46.27
2019-03-12T20:30:28.914Z,48.83
2019-03-12T20:33:18.537Z,50.20
2019-03-12T20:36:20.259Z,43.47
2019-03-12T20:39:14.130Z,53.90
2019-03-12T20:41:57.559Z,60.67
2019-03-12T20:44:45.803Z,46.67
2019-03-12T20:47:20.330Z,42.37
2019-03-12T20:50:11.391Z,57.43
2019-03-12T20:52:59.073Z,61.13
2019-03-12T20:56:03.734Z,58.93
2019-03-12T20:58:57.470Z,57.60
2019-03-12T21:01:58.928Z,65.10
2019-03-12T21:04:38.654Z,37.70
2019-03-12T21:07:35.518Z,41.13
2019-03-12T21:10:23.480Z,44.13
2019-03-12T21:13:28.026Z,73.10
2019-03-12T21:16:20.466Z,66.00
2019-03-12T21:19:26.463Z,50.90
2019-03-12T21:22:04.281Z,52.50
2019-03-12T21:24:56.984Z,47.60
2019-03-12T21:27:34.216Z,41.57
2019-03-12T21:30:01.645Z,46.07
2019-03-12T21:32:30.181Z,46.97
2019-03-12T21:34:58.722Z,49.33
2019-03-12T21:37:27.716Z,58.20
2019-03-12T21:39:56.422Z,51.17
2019-03-12T21:42:25.778Z,88.77
2019-03-12T21:44:54.378Z,44.93
2019-03-12T21:47:22.945Z,55.60
2019-03-12T21:49:51.541Z,55.27
2019-03-12T21:52:20.294Z,62.17
2019-03-12T21:54:48.843Z,75.93
2019-03-12T21:57:17.569Z,35.37
2019-03-12T21:59:46.265Z,41.20
2019-03-12T22:02:14.874Z,55.53
2019-03-12T22:04:43.449Z,47.10
2019-03-12T22:07:11.993Z,41.03
2019-03-12T22:09:40.663Z,46.23
2019-03-12T22:12:09.225Z,91.70
2019-03-12T22:14:37.777Z,138.83
2019-03-12T22:17:06.317Z,123.43
2019-03-12T22:19:34.958Z,53.23
2019-03-12T22:22:21.262Z,56.73
2019-03-12T22:24:49.984Z,33.70
2019-03-12T22:27:18.594Z,31.67
2019-03-12T22:29:47.205Z,30.87
2019-03-12T22:32:15.693Z,32.47
2019-03-12T22:34:44.305Z,32.57
2019-03-12T22:37:12.917Z,40.00
2019-03-12T22:39:41.385Z,30.10
2019-03-12T22:42:09.975Z,28.60
2019-03-12T22:44:41.442Z,33.27
2019-03-12T22:47:10.058Z,29.17
2019-03-12T22:49:38.628Z,28.50
2019-03-12T22:52:07.174Z,26.67
2019-03-12T22:54:35.782Z,26.60
2019-03-12T22:57:04.400Z,27.83
2019-03-12T22:59:33.064Z,26.63
2019-03-12T23:02:04.221Z,29.50
2019-03-12T23:04:34.373Z,26.57
2019-03-12T23:07:03.022Z,26.83
2019-03-12T23:09:31.671Z,25.07
2019-03-12T23:12:00.342Z,23.23
2019-03-12T23:14:28.990Z,29.13
2019-03-12T23:16:57.554Z,28.97
2019-03-12T23:19:26.243Z,26.77
2019-03-12T23:21:54.848Z,23.27
2019-03-12T23:24:23.432Z,27.67
2019-03-12T23:26:53.769Z,22.57
2019-03-12T23:29:22.368Z,27.13
2019-03-12T23:31:51.000Z,24.53
2019-03-12T23:34:19.650Z,26.87
2019-03-12T23:36:48.352Z,24.97
2019-03-12T23:39:17.163Z,22.27
2019-03-12T23:41:45.880Z,23.20
2019-03-12T23:44:14.555Z,21.27
2019-03-12T23:46:43.279Z,23.93
2019-03-12T23:49:11.932Z,20.60
2019-03-12T23:51:40.601Z,26.60
2019-03-12T23:54:09.420Z,25.67
2019-03-12T23:56:38.062Z,24.20
2019-03-12T23:59:06.803Z,22.93
